createdAt,value
2018-05-17T00:00:29.504Z,16.40
2018-05-17T00:02:57.825Z,17.57
2018-05-17T00:05:26.165Z,20.33
2018-05-17T00:07:54.499Z,17.10
2018-05-17T00:10:23.609Z,16.47
2018-05-17T00:12:51.950Z,15.93
2018-05-17T00:15:20.303Z,15.80
2018-05-17T00:17:48.612Z,23.00
2018-05-17T00:20:17.723Z,19.30
2018-05-17T00:22:46.043Z,23.17
2018-05-17T00:25:15.036Z,21.20
2018-05-17T00:27:43.359Z,24.77
2018-05-17T00:30:11.701Z,15.33
2018-05-17T00:32:40.028Z,15.37
2018-05-17T00:35:08.365Z,16.07
2018-05-17T00:37:36.684Z,15.80
2018-05-17T00:40:05.049Z,16.90
2018-05-17T00:42:33.717Z,16.10
2018-05-17T00:45:02.076Z,16.77
2018-05-17T00:47:31.592Z,18.40
2018-05-17T00:49:59.914Z,19.23
2018-05-17T00:52:29.062Z,20.43
2018-05-17T00:54:57.367Z,27.03
2018-05-17T00:57:26.115Z,21.17
2018-05-17T00:59:54.430Z,16.33
2018-05-17T01:02:22.780Z,20.90
2018-05-17T01:04:51.092Z,21.67
2018-05-17T01:07:19.426Z,19.57
2018-05-17T01:09:47.744Z,21.60
2018-05-17T01:12:16.098Z,18.73
2018-05-17T01:14:44.425Z,20.07
2018-05-17T01:17:13.527Z,27.33
2018-05-17T01:19:42.604Z,19.40
2018-05-17T01:22:10.943Z,17.70
2018-05-17T01:24:40.235Z,18.40
2018-05-17T01:27:08.571Z,23.90
2018-05-17T01:29:37.673Z,17.23
2018-05-17T01:32:06.770Z,25.13
2018-05-17T01:34:35.858Z,23.53
2018-05-17T01:37:16.090Z,21.13
2018-05-17T01:39:44.407Z,18.83
2018-05-17T01:42:12.767Z,19.80
2018-05-17T01:44:41.103Z,16.53
2018-05-17T01:47:09.415Z,20.43
2018-05-17T01:49:37.814Z,22.63
2018-05-17T01:52:06.895Z,18.40
2018-05-17T01:54:35.234Z,17.03
2018-05-17T01:57:04.800Z,25.10
2018-05-17T01:59:33.896Z,15.67
2018-05-17T02:02:02.974Z,15.30
2018-05-17T02:04:32.079Z,18.50
2018-05-17T02:07:01.159Z,14.17
2018-05-17T02:09:29.500Z,14.77
2018-05-17T02:11:57.815Z,15.73
2018-05-17T02:14:26.929Z,21.03
2018-05-17T02:16:56.123Z,27.87
2018-05-17T02:19:24.492Z,19.20
2018-05-17T02:21:52.794Z,20.07
2018-05-17T02:24:21.135Z,16.80
2018-05-17T02:26:49.457Z,16.63
2018-05-17T02:29:17.796Z,20.37
2018-05-17T02:31:46.416Z,18.53
2018-05-17T02:34:15.307Z,24.37
2018-05-17T02:36:43.849Z,20.87
2018-05-17T02:39:12.187Z,19.97
2018-05-17T02:41:40.540Z,22.13
2018-05-17T02:44:08.871Z,26.13
2018-05-17T02:46:37.198Z,25.03
2018-05-17T02:49:06.334Z,33.90
2018-05-17T02:51:34.658Z,35.53
2018-05-17T02:54:04.124Z,24.93
2018-05-17T02:56:32.453Z,23.13
2018-05-17T02:59:00.767Z,37.60
2018-05-17T03:01:29.116Z,30.17
2018-05-17T03:03:57.431Z,28.50
2018-05-17T03:06:25.776Z,26.73
2018-05-17T03:08:54.102Z,31.17
2018-05-17T03:11:22.465Z,32.30
2018-05-17T03:13:50.778Z,35.83
2018-05-17T03:16:20.625Z,43.43
2018-05-17T03:18:48.969Z,33.73
2018-05-17T03:21:17.288Z,36.00
2018-05-17T03:23:45.630Z,33.70
2018-05-17T03:26:14.709Z,35.60
2018-05-17T03:28:43.830Z,39.43
2018-05-17T03:31:12.914Z,39.03
2018-05-17T03:33:42.023Z,37.27
2018-05-17T03:36:11.114Z,35.13
2018-05-17T03:38:40.234Z,36.93
2018-05-17T03:41:08.543Z,40.90
2018-05-17T03:43:36.870Z,41.10
2018-05-17T03:46:05.947Z,43.17
2018-05-17T03:48:35.079Z,44.20
2018-05-17T03:51:03.386Z,44.00
2018-05-17T03:53:31.714Z,43.33
2018-05-17T03:56:00.038Z,41.60
2018-05-17T03:58:28.374Z,47.67
2018-05-17T04:01:09.434Z,33.93
2018-05-17T04:06:40.881Z,38.10
2018-05-17T04:09:09.218Z,38.20
2018-05-17T04:11:37.530Z,42.17
2018-05-17T04:17:07.184Z,47.87
2018-05-17T04:19:35.543Z,35.57
2018-05-17T04:22:03.871Z,42.27
2018-05-17T04:24:32.216Z,41.53
2018-05-17T04:27:00.537Z,41.63
2018-05-17T04:29:28.870Z,39.27
2018-05-17T04:31:57.181Z,34.17
2018-05-17T04:34:25.547Z,41.33
2018-05-17T04:36:54.618Z,43.70
2018-05-17T04:39:22.958Z,36.23
2018-05-17T04:41:51.282Z,42.40
2018-05-17T04:44:19.630Z,51.73
2018-05-17T04:46:47.936Z,48.03
2018-05-17T04:49:16.243Z,44.00
2018-05-17T04:51:44.579Z,36.77
2018-05-17T04:54:12.902Z,40.87
2018-05-17T04:56:41.238Z,39.40
2018-05-17T04:59:09.549Z,44.60
2018-05-17T05:01:38.662Z,40.67
2018-05-17T05:04:06.991Z,39.57
2018-05-17T05:06:35.322Z,35.43
2018-05-17T05:09:03.627Z,34.90
2018-05-17T05:11:31.985Z,32.80
2018-05-17T05:14:00.300Z,30.63
2018-05-17T05:16:28.648Z,34.60
2018-05-17T05:18:56.957Z,27.87
2018-05-17T05:21:25.314Z,31.27
2018-05-17T05:23:53.633Z,31.10
2018-05-17T05:26:22.732Z,44.43
2018-05-17T05:28:51.808Z,32.07
2018-05-17T05:31:20.146Z,40.03
2018-05-17T05:33:48.461Z,44.77
2018-05-17T05:36:16.808Z,23.27
2018-05-17T05:38:45.205Z,29.53
2018-05-17T05:41:13.563Z,28.53
2018-05-17T05:43:41.875Z,26.20
2018-05-17T05:46:10.190Z,29.00
2018-05-17T05:48:38.561Z,35.60
2018-05-17T05:51:07.643Z,31.70
2018-05-17T05:53:36.758Z,36.23
2018-05-17T05:56:05.827Z,31.47
2018-05-17T05:58:34.170Z,31.90
2018-05-17T06:01:02.500Z,37.17
2018-05-17T06:03:31.606Z,28.80
2018-05-17T06:05:59.945Z,29.37
2018-05-17T06:08:28.431Z,28.87
2018-05-17T06:10:56.664Z,34.90
2018-05-17T06:13:24.991Z,29.00
2018-05-17T06:15:53.311Z,27.50
2018-05-17T06:18:21.646Z,27.03
2018-05-17T06:20:49.956Z,34.07
2018-05-17T06:23:18.294Z,32.80
2018-05-17T06:25:46.615Z,31.50
2018-05-17T06:28:14.954Z,31.67
2018-05-17T06:30:43.287Z,37.37
2018-05-17T06:33:11.637Z,31.90
2018-05-17T06:35:40.718Z,43.43
2018-05-17T06:38:09.064Z,30.00
2018-05-17T06:40:37.445Z,25.03
2018-05-17T06:43:05.792Z,32.67
2018-05-17T06:45:34.127Z,26.07
2018-05-17T06:48:02.435Z,34.07
2018-05-17T06:50:30.766Z,29.10
2018-05-17T06:52:59.071Z,20.90
2018-05-17T06:55:28.180Z,30.13
2018-05-17T06:57:56.490Z,27.03
2018-05-17T07:00:24.816Z,24.00
2018-05-17T07:02:53.902Z,35.17
2018-05-17T07:05:22.248Z,25.33
2018-05-17T07:07:50.555Z,26.23
2018-05-17T07:10:18.891Z,21.23
2018-05-17T07:12:47.210Z,25.20
2018-05-17T07:15:15.550Z,27.13
2018-05-17T07:17:43.859Z,32.43
2018-05-17T07:20:12.195Z,22.70
2018-05-17T07:22:40.506Z,26.87
2018-05-17T07:25:08.813Z,28.57
2018-05-17T07:27:37.927Z,31.37
2018-05-17T07:30:06.244Z,26.00
2018-05-17T07:32:34.580Z,27.57
2018-05-17T07:35:03.667Z,24.93
2018-05-17T07:37:32.768Z,24.80
2018-05-17T07:40:01.843Z,28.70
2018-05-17T07:42:30.952Z,30.70
2018-05-17T07:45:00.086Z,33.00
2018-05-17T07:47:28.428Z,22.30
2018-05-17T07:49:57.523Z,23.90
2018-05-17T07:52:26.625Z,21.47
2018-05-17T07:54:55.709Z,29.33
2018-05-17T07:57:24.814Z,27.13
2018-05-17T07:59:54.084Z,35.33
2018-05-17T08:02:22.422Z,28.77
2018-05-17T08:04:50.735Z,29.80
2018-05-17T08:07:19.074Z,28.37
2018-05-17T08:09:47.388Z,18.10
2018-05-17T08:12:15.731Z,37.37
2018-05-17T08:14:44.090Z,31.53
2018-05-17T08:17:12.413Z,28.03
2018-05-17T08:19:40.751Z,24.03
2018-05-17T08:22:09.071Z,23.90
2018-05-17T08:24:37.408Z,19.23
2018-05-17T08:27:05.714Z,23.10
2018-05-17T08:29:34.048Z,18.13
2018-05-17T08:32:03.135Z,22.33
2018-05-17T08:34:32.237Z,18.10
2018-05-17T08:37:01.328Z,25.57
2018-05-17T08:39:30.428Z,23.53
2018-05-17T08:41:59.510Z,24.67
2018-05-17T08:44:27.839Z,22.87
2018-05-17T08:46:56.146Z,21.73
2018-05-17T08:49:24.479Z,19.80
2018-05-17T08:54:52.624Z,20.97
2018-05-17T08:57:20.930Z,24.63
2018-05-17T09:02:24.992Z,20.10
2018-05-17T09:04:53.323Z,28.20
2018-05-17T09:07:21.672Z,16.00
2018-05-17T09:09:50.012Z,28.60
2018-05-17T09:12:18.332Z,15.30
2018-05-17T09:14:46.672Z,16.33
2018-05-17T09:17:14.994Z,19.43
2018-05-17T09:19:43.311Z,24.83
2018-05-17T09:22:12.404Z,19.97
2018-05-17T09:24:40.718Z,20.00
2018-05-17T09:27:09.060Z,18.50
2018-05-17T09:29:38.167Z,15.63
2018-05-17T09:32:06.504Z,18.97
2018-05-17T09:34:34.810Z,27.83
2018-05-17T09:37:03.916Z,20.30
2018-05-17T09:39:32.220Z,19.30
2018-05-17T09:42:00.550Z,16.27
2018-05-17T09:44:28.864Z,21.60
2018-05-17T09:46:57.203Z,21.03
2018-05-17T09:49:25.512Z,18.47
2018-05-17T09:51:53.843Z,22.13
2018-05-17T09:54:22.151Z,19.87
2018-05-17T09:56:51.245Z,20.03
2018-05-17T09:59:20.343Z,20.97
2018-05-17T10:01:49.418Z,14.97
2018-05-17T10:04:17.777Z,18.00
2018-05-17T10:06:46.096Z,20.63
2018-05-17T10:09:15.210Z,20.50
2018-05-17T10:11:43.514Z,22.77
2018-05-17T10:14:11.846Z,18.90
2018-05-17T10:16:40.907Z,18.73
2018-05-17T10:19:09.238Z,23.93
2018-05-17T10:21:37.553Z,22.30
2018-05-17T10:24:05.883Z,18.70
2018-05-17T10:26:34.195Z,19.37
2018-05-17T10:29:02.526Z,17.30
2018-05-17T10:31:31.590Z,16.60
2018-05-17T10:33:59.956Z,18.97
2018-05-17T10:36:28.277Z,12.87
2018-05-17T10:38:56.619Z,17.23
2018-05-17T10:41:24.931Z,19.57
2018-05-17T10:43:54.043Z,15.47
2018-05-17T10:46:22.351Z,17.10
2018-05-17T10:48:50.717Z,23.17
2018-05-17T10:51:19.020Z,15.60
2018-05-17T10:53:47.356Z,16.37
2018-05-17T10:56:15.673Z,15.00
2018-05-17T10:58:44.005Z,17.80
2018-05-17T11:01:13.271Z,18.60
2018-05-17T11:03:42.363Z,17.70
2018-05-17T11:06:10.779Z,13.57
2018-05-17T11:08:39.876Z,16.87
2018-05-17T11:11:08.212Z,15.97
2018-05-17T11:13:36.549Z,13.03
2018-05-17T11:16:04.867Z,14.43
2018-05-17T11:18:33.194Z,19.00
2018-05-17T11:21:01.507Z,23.73
2018-05-17T11:23:29.853Z,17.30
2018-05-17T11:25:58.235Z,19.23
2018-05-17T11:28:26.525Z,24.63
2018-05-17T11:30:54.837Z,32.43
2018-05-17T11:33:23.179Z,18.37
2018-05-17T11:35:51.486Z,26.53
2018-05-17T11:38:19.825Z,15.53
2018-05-17T11:40:48.142Z,22.07
2018-05-17T11:43:16.484Z,12.27
2018-05-17T11:45:44.796Z,24.93
2018-05-17T11:48:13.132Z,20.23
2018-05-17T11:50:41.454Z,14.83
2018-05-17T11:53:09.794Z,16.73
2018-05-17T11:55:38.102Z,22.73
2018-05-17T11:58:06.438Z,17.10
2018-05-17T12:00:34.746Z,25.23
2018-05-17T12:03:03.088Z,21.50
2018-05-17T12:05:31.399Z,14.50
2018-05-17T12:07:59.788Z,17.63
2018-05-17T12:10:28.288Z,22.07
2018-05-17T12:12:56.591Z,13.47
2018-05-17T12:15:25.693Z,17.33
2018-05-17T12:17:54.763Z,17.33
2018-05-17T12:23:33.191Z,23.83
2018-05-17T12:26:01.500Z,15.60
2018-05-17T12:28:30.600Z,18.93
2018-05-17T12:30:59.710Z,24.80
2018-05-17T12:33:28.062Z,19.77
2018-05-17T12:35:57.140Z,13.40
2018-05-17T12:38:25.470Z,22.73
2018-05-17T12:40:53.775Z,13.80
2018-05-17T12:43:22.123Z,19.23
2018-05-17T12:45:50.430Z,14.80
2018-05-17T12:48:18.759Z,25.63
2018-05-17T12:50:47.872Z,22.97
2018-05-17T12:53:16.932Z,18.40
2018-05-17T12:55:46.029Z,24.43
2018-05-17T12:58:15.111Z,11.57
2018-05-17T13:00:43.444Z,15.13
2018-05-17T13:03:11.753Z,14.20
2018-05-17T13:05:40.082Z,38.70
2018-05-17T13:08:08.383Z,11.37
2018-05-17T13:10:36.718Z,16.50
2018-05-17T13:13:05.836Z,21.77
2018-05-17T13:15:35.010Z,18.90
2018-05-17T13:18:04.082Z,10.73
2018-05-17T13:20:32.419Z,10.60
2018-05-17T13:23:00.721Z,16.13
2018-05-17T13:25:29.067Z,21.80
2018-05-17T13:27:57.379Z,12.80
2018-05-17T13:30:25.724Z,26.93
2018-05-17T13:32:54.040Z,23.90
2018-05-17T13:35:22.373Z,11.77
2018-05-17T13:37:50.705Z,24.50
2018-05-17T13:40:19.047Z,9.20
2018-05-17T13:42:47.346Z,10.13
2018-05-17T13:45:15.692Z,11.07
2018-05-17T13:47:44.065Z,9.63
2018-05-17T13:50:12.400Z,14.10
2018-05-17T13:52:40.707Z,12.90
2018-05-17T13:55:09.806Z,15.27
2018-05-17T13:57:38.898Z,14.30
2018-05-17T14:00:07.997Z,16.27
2018-05-17T14:02:36.403Z,9.10
2018-05-17T14:05:04.676Z,10.50
2018-05-17T14:07:32.979Z,18.87
2018-05-17T14:10:01.315Z,16.77
2018-05-17T14:12:29.788Z,13.43
2018-05-17T14:14:58.887Z,14.90
2018-05-17T14:17:27.204Z,16.43
2018-05-17T14:19:55.543Z,10.40
2018-05-17T14:22:24.610Z,13.27
2018-05-17T14:24:52.943Z,15.77
2018-05-17T14:27:21.248Z,17.20
2018-05-17T14:29:50.338Z,14.57
2018-05-17T14:32:18.646Z,16.20
2018-05-17T14:34:47.742Z,10.20
2018-05-17T14:37:16.818Z,13.13
2018-05-17T14:39:45.227Z,13.30
2018-05-17T14:42:14.307Z,18.10
2018-05-17T14:44:42.630Z,12.57
2018-05-17T14:47:10.995Z,15.80
2018-05-17T14:49:39.328Z,12.87
2018-05-17T14:52:07.643Z,10.30
2018-05-17T14:54:35.988Z,22.90
2018-05-17T14:57:04.302Z,14.23
2018-05-17T14:59:32.636Z,15.07
2018-05-17T15:02:00.946Z,13.63
2018-05-17T15:04:30.124Z,20.20
2018-05-17T15:06:59.235Z,14.53
2018-05-17T15:09:28.408Z,11.63
2018-05-17T15:11:56.738Z,13.97
2018-05-17T15:14:25.059Z,15.40
2018-05-17T15:16:53.379Z,17.57
2018-05-17T15:19:21.691Z,19.13
2018-05-17T15:21:50.026Z,16.07
2018-05-17T15:24:19.111Z,14.80
2018-05-17T15:26:47.438Z,19.33
2018-05-17T15:29:15.747Z,27.47
2018-05-17T15:31:44.221Z,21.87
2018-05-17T15:34:12.543Z,23.07
2018-05-17T15:36:40.918Z,18.30
2018-05-17T15:39:10.003Z,17.10
2018-05-17T15:41:39.118Z,21.83
2018-05-17T15:44:07.443Z,17.90
2018-05-17T15:46:35.770Z,34.37
2018-05-17T15:49:04.849Z,15.17
2018-05-17T15:51:33.183Z,18.93
2018-05-17T15:54:01.503Z,11.23
2018-05-17T15:56:29.829Z,18.90
2018-05-17T15:58:58.163Z,19.13
2018-05-17T16:01:27.255Z,18.90
2018-05-17T16:03:56.327Z,19.57
2018-05-17T16:06:24.662Z,24.70
2018-05-17T16:08:52.985Z,16.77
2018-05-17T16:11:21.320Z,16.90
2018-05-17T16:13:49.622Z,21.20
2018-05-17T16:16:17.954Z,24.10
2018-05-17T16:18:47.039Z,18.37
2018-05-17T16:21:16.137Z,20.27
2018-05-17T16:23:45.211Z,22.13
2018-05-17T16:26:13.542Z,23.40
2018-05-17T16:28:41.846Z,25.23
2018-05-17T16:31:10.174Z,17.40
2018-05-17T16:33:39.244Z,16.23
2018-05-17T16:36:07.570Z,18.80
2018-05-17T16:38:35.893Z,18.80
2018-05-17T16:41:04.259Z,32.30
2018-05-17T16:43:32.579Z,19.93
2018-05-17T16:46:01.669Z,22.23
2018-05-17T16:48:30.746Z,19.77
2018-05-17T16:50:59.083Z,17.53
2018-05-17T16:53:27.396Z,22.13
2018-05-17T16:55:55.729Z,25.83
2018-05-17T16:58:24.045Z,19.97
2018-05-17T17:00:52.382Z,17.30
2018-05-17T17:03:20.686Z,25.97
2018-05-17T17:05:49.024Z,16.90
2018-05-17T17:08:17.326Z,18.60
2018-05-17T17:10:45.663Z,16.10
2018-05-17T17:13:14.793Z,21.60
2018-05-17T17:15:43.123Z,22.90
2018-05-17T17:18:12.066Z,15.77
2018-05-17T17:20:40.425Z,15.03
2018-05-17T17:23:08.763Z,17.03
2018-05-17T17:25:37.107Z,12.93
2018-05-17T17:28:05.415Z,16.27
2018-05-17T17:30:33.797Z,21.07
2018-05-17T17:33:02.147Z,26.60
2018-05-17T17:35:31.564Z,25.10
2018-05-17T17:38:00.728Z,15.27
2018-05-17T17:40:35.959Z,18.97
2018-05-17T17:43:04.297Z,15.67
2018-05-17T17:45:33.387Z,27.10
2018-05-17T17:48:01.727Z,19.43
2018-05-17T17:50:30.088Z,18.27
2018-05-17T17:52:58.460Z,19.50
2018-05-17T17:55:26.799Z,32.13
2018-05-17T17:57:55.131Z,20.83
2018-05-17T18:00:23.479Z,26.13
2018-05-17T18:02:51.819Z,16.63
2018-05-17T18:05:20.242Z,20.07
2018-05-17T18:07:48.516Z,25.40
2018-05-17T18:10:17.596Z,18.47
2018-05-17T18:12:45.939Z,16.90
2018-05-17T18:15:14.281Z,24.13
2018-05-17T18:17:42.652Z,23.80
2018-05-17T18:20:11.751Z,16.90
2018-05-17T18:22:40.126Z,16.93
2018-05-17T18:25:09.208Z,16.00
2018-05-17T18:27:38.332Z,20.73
2018-05-17T18:30:06.638Z,25.10
2018-05-17T18:32:34.967Z,17.20
2018-05-17T18:35:04.047Z,26.90
2018-05-17T18:37:32.381Z,23.57
2018-05-17T18:40:00.678Z,19.20
2018-05-17T18:42:29.143Z,20.57
2018-05-17T18:44:57.525Z,18.73
2018-05-17T18:47:25.882Z,19.20
2018-05-17T18:49:54.194Z,16.50
2018-05-17T18:52:22.522Z,28.00
2018-05-17T18:54:51.605Z,37.77
2018-05-17T18:57:20.703Z,21.73
2018-05-17T18:59:49.786Z,27.57
2018-05-17T19:02:18.156Z,15.33
2018-05-17T19:04:46.463Z,22.30
2018-05-17T19:07:15.569Z,22.20
2018-05-17T19:09:43.996Z,17.63
2018-05-17T19:12:12.330Z,20.63
2018-05-17T19:14:41.687Z,14.10
2018-05-17T19:17:10.020Z,23.23
2018-05-17T19:19:38.370Z,19.53
2018-05-17T19:22:07.474Z,22.00
2018-05-17T19:24:36.554Z,23.30
2018-05-17T19:27:05.672Z,20.53
2018-05-17T19:29:33.980Z,14.70
2018-05-17T19:32:02.312Z,18.00
2018-05-17T19:34:31.387Z,24.20
2018-05-17T19:36:59.836Z,23.00
2018-05-17T19:39:28.253Z,16.47
2018-05-17T19:41:56.584Z,20.37
2018-05-17T19:44:24.887Z,18.60
2018-05-17T19:46:53.982Z,17.87
2018-05-17T19:49:22.296Z,19.10
2018-05-17T19:51:51.394Z,23.43
2018-05-17T19:54:20.473Z,26.80
2018-05-17T19:56:48.799Z,19.80
2018-05-17T19:59:17.110Z,16.43
2018-05-17T20:01:45.451Z,13.53
2018-05-17T20:04:13.836Z,16.93
2018-05-17T20:06:42.175Z,21.43
2018-05-17T20:09:11.255Z,15.07
2018-05-17T20:11:39.598Z,27.10
2018-05-17T20:14:07.925Z,27.23
2018-05-17T20:16:37.028Z,18.67
2018-05-17T20:19:05.365Z,19.67
2018-05-17T20:21:33.716Z,17.93
2018-05-17T20:24:02.032Z,21.60
2018-05-17T20:26:30.341Z,19.10
2018-05-17T20:28:59.443Z,17.80
2018-05-17T20:31:28.510Z,14.00
2018-05-17T20:33:56.849Z,27.53
2018-05-17T20:36:25.171Z,22.27
2018-05-17T20:38:53.499Z,13.80
2018-05-17T20:41:21.813Z,18.40
2018-05-17T20:43:50.151Z,46.10
2018-05-17T20:46:18.474Z,19.57
2018-05-17T20:48:46.804Z,23.93
2018-05-17T20:51:15.114Z,27.97
2018-05-17T20:53:43.457Z,15.73
2018-05-17T20:56:11.765Z,22.77
2018-05-17T20:58:40.133Z,16.13
2018-05-17T21:01:08.459Z,19.23
2018-05-17T21:03:37.574Z,21.47
2018-05-17T21:06:05.876Z,18.17
2018-05-17T21:08:34.219Z,21.77
2018-05-17T21:11:03.290Z,20.40
2018-05-17T21:13:31.625Z,24.57
2018-05-17T21:15:59.937Z,14.60
2018-05-17T21:18:28.271Z,23.23
2018-05-17T21:20:56.609Z,19.10
2018-05-17T21:23:25.710Z,16.20
2018-05-17T21:25:54.799Z,29.40
2018-05-17T21:28:23.126Z,16.50
2018-05-17T21:30:51.444Z,18.70
2018-05-17T21:33:19.778Z,22.23
2018-05-17T21:35:48.102Z,22.50
2018-05-17T21:38:16.438Z,13.60
2018-05-17T21:40:44.812Z,14.13
2018-05-17T21:43:13.167Z,16.10
2018-05-17T21:45:42.234Z,20.87
2018-05-17T21:48:10.567Z,18.47
2018-05-17T21:50:39.651Z,21.93
2018-05-17T21:53:07.986Z,18.40
2018-05-17T21:55:36.384Z,18.27
2018-05-17T21:58:04.644Z,17.27
2018-05-17T22:00:33.741Z,16.97
2018-05-17T22:03:02.849Z,14.60
2018-05-17T22:05:31.174Z,18.93
2018-05-17T22:07:59.545Z,21.13
2018-05-17T22:10:27.849Z,14.70
2018-05-17T22:12:56.184Z,20.27
2018-05-17T22:15:24.497Z,27.20
2018-05-17T22:17:52.852Z,17.43
2018-05-17T22:20:21.195Z,16.50
2018-05-17T22:22:50.314Z,14.13
2018-05-17T22:25:18.653Z,16.40
2018-05-17T22:27:46.989Z,17.40
2018-05-17T22:30:15.304Z,13.93
2018-05-17T22:32:43.731Z,18.07
2018-05-17T22:35:12.036Z,15.37
2018-05-17T22:37:40.366Z,10.17
2018-05-17T22:40:09.443Z,15.13
2018-05-17T22:42:37.775Z,12.90
2018-05-17T22:45:06.077Z,14.67
2018-05-17T22:47:34.418Z,15.07
2018-05-17T22:50:02.726Z,13.30
2018-05-17T22:52:31.046Z,10.50
2018-05-17T22:55:00.125Z,21.20
2018-05-17T22:57:40.245Z,16.30
2018-05-17T23:00:08.552Z,13.63
2018-05-17T23:02:36.646Z,15.30
2018-05-17T23:05:04.992Z,13.50
2018-05-17T23:07:33.306Z,15.17
2018-05-17T23:10:02.402Z,18.80
2018-05-17T23:12:31.478Z,17.23
2018-05-17T23:15:00.619Z,18.10
2018-05-17T23:17:28.939Z,28.07
2018-05-17T23:19:58.775Z,13.63
2018-05-17T23:22:37.610Z,11.27
2018-05-17T23:25:08.913Z,18.50
2018-05-17T23:27:37.225Z,20.37
2018-05-17T23:30:06.311Z,9.20
2018-05-17T23:32:34.623Z,25.07
2018-05-17T23:35:02.975Z,10.97
2018-05-17T23:37:32.055Z,11.50
2018-05-17T23:40:13.089Z,8.83
2018-05-17T23:42:41.550Z,13.90
2018-05-17T23:45:09.876Z,15.63
2018-05-17T23:47:38.190Z,18.10
2018-05-17T23:50:07.283Z,10.33
2018-05-17T23:52:36.351Z,16.23
2018-05-17T23:55:04.687Z,42.13
2018-05-17T23:57:32.999Z,27.33
